• Join FlightAware (Why Join?)
  • Login
  • US Flag 
02:00AM EDT


 

Airport Tracker/Info


-or-


 

Live Flight TrackerFlight Track Log ✈ AAL1459 ✈ 22-Apr-2013 ✈ KBOS - KORD

Flight Track Log - Related Links

Times and Time Zones

All times are in EDT time to prevent confusion due to time zone crossing. See the AAL1459 flight status page for this flight to view local times or setup timezone preferences in your user account.

Time Position Orientation Groundspeed Altitude Reporting Facility
EDT Latitude Longitude Course Direction KTS MPH feet Rate Location/Type
02:23PM 42.3667 -70.9667 300° West 151 174 1,200  Level KA90
02:24PM 42.3667 -70.9167 90° East 198 228 2,500 1,680 Climbing KA90
02:25PM 42.4594 -70.8271 26° Northeast  Level FlightAware Approximate
02:25PM 42.3833 -70.8333 75° East 232 267 4,500  Level KA90
02:26PM 42.5385 -70.8026 340° North  Level FlightAware Approximate
02:27PM 42.6099 -70.8922 308° West  Level FlightAware Approximate
02:27PM 42.4653 -70.7683 30° Northeast 292 336 7,500  Level Boston Center
02:28PM 42.6640 -71.0068 300° West  Level FlightAware Approximate
02:28PM 42.5350 -70.8397 323° Northwest 250 288 10,500  Level Boston Center
02:29PM 42.5906 -70.9369 308° West 282 325 11,900 2,400 Climbing Boston Center
02:30PM 42.6589 -71.0567 308° West 351 404 15,300 3,000 Climbing Boston Center
02:31PM 42.7142 -71.1572 307° West 373 429 18,000 2,100 Climbing Boston Center
02:32PM 42.7531 -71.2922 291° West 373 429 19,600 2,040 Climbing Boston Center
02:33PM 42.7836 -71.4303 287° West 378 435 22,100 2,340 Climbing Boston Center
02:34PM 42.8056 -71.5714 282° West 383 441 24,300 2,040 Climbing Boston Center
02:35PM 42.8358 -71.7181 286° West 393 452 26,200 1,800 Climbing Boston Center
02:36PM 42.8658 -71.8650 286° West 399 459 28,000 1,860 Climbing Boston Center
02:37PM 42.8956 -72.0150 285° West 404 465 30,000 2,220 Climbing Boston Center
02:38PM 42.9231 -72.1567 285° West 404 465 32,500 2,100 Climbing Boston Center
02:39PM 42.9567 -72.2897 289° West 385 443 34,300 1,500 Climbing Boston Center
02:40PM 42.9797 -72.4231 283° West 373 429 35,500 780 Climbing Boston Center
02:41PM 43.0006 -72.5308 285° West 368 423 35,900 240 Climbing Boston Center
02:42PM 43.0275 -72.7069 282° West 368 423 36,000  Climbing Boston Center
02:43PM 43.0542 -72.8436 285° West 373 429 36,000  Level Boston Center
02:44PM 43.0806 -72.9858 284° West 373 429 36,000  Level Boston Center
02:45PM 43.1069 -73.1169 285° West 378 435 36,000  Level Boston Center
02:46PM 43.1353 -73.2653 285° West 388 447 36,000  Level Boston Center
02:47PM 43.1611 -73.4219 283° West 393 452 36,000  Level Boston Center
02:48PM 43.1869 -73.5647 284° West 393 452 36,000  Level Boston Center
02:49PM 43.2019 -73.7133 278° West 393 452 36,000  Level Boston Center
02:50PM 43.2128 -73.8503 276° West 393 452 36,000 -60 Level Boston Center
02:51PM 43.2214 -73.9986 275° West 393 452 35,900 -60 Descending Boston Center
02:52PM 43.2294 -74.1497 274° West 393 452 35,900  Level Boston Center
02:53PM 43.2375 -74.3011 274° West 398 458 35,900  Level Boston Center
02:54PM 43.2456 -74.4525 274° West 405 466 36,000  Climbing Boston Center
02:55PM 43.2531 -74.6039 274° West 405 466 35,900  Descending Boston Center
02:56PM 43.2628 -74.7553 275° West 405 466 36,000  Climbing Boston Center
02:57PM 43.2700 -74.9067 274° West 405 466 35,900 -60 Descending Boston Center
02:58PM 43.2750 -75.0525 273° West 405 466 35,900  Level Boston Center
02:59PM 43.2858 -75.2125 275° West 405 466 36,000  Climbing Boston Center
03:00PM 43.2925 -75.3669 273° West 410 472 36,000  Level Boston Center
03:01PM 43.2986 -75.5242 273° West 410 472 36,000 -60 Level Boston Center
03:03PM 43.3111 -75.8350 273° West 404 465 35,900  Descending Cleveland Center
03:04PM 43.3172 -75.9858 273° West 404 465 36,000  Climbing Cleveland Center
03:05PM 43.3256 -76.1422 274° West 404 465 36,000  Level Cleveland Center
03:06PM 43.3231 -76.2967 269° West 404 465 36,000  Level Cleveland Center
03:07PM 43.3161 -76.4511 267° West 404 465 36,000 -60 Level Cleveland Center
03:08PM 43.3111 -76.6058 268° West 409 471 35,900  Descending Cleveland Center
03:09PM 43.3058 -76.7600 267° West 409 471 36,000  Climbing Cleveland Center
03:10PM 43.2983 -76.9147 266° West 409 471 36,000  Level Cleveland Center
03:11PM 43.2900 -77.0522 265° West 409 471 36,000  Level Cleveland Center
03:12PM 43.2842 -77.2064 267° West 409 471 36,000  Level Cleveland Center
03:13PM 43.2783 -77.3636 267° West 409 471 36,000  Level Cleveland Center
03:14PM 43.2700 -77.5181 266° West 409 471 36,000  Level Cleveland Center
03:15PM 43.2614 -77.6725 266° West 409 471 36,000  Level Cleveland Center
03:16PM 43.2550 -77.8297 267° West 409 471 36,000  Level Cleveland Center
03:17PM 43.2458 -77.9839 265° West 409 471 36,000  Level Cleveland Center
03:18PM 43.2389 -78.1411 267° West 409 471 36,000  Level Cleveland Center
03:19PM 43.2317 -78.2981 266° West 409 471 36,000  Level Cleveland Center
03:20PM 43.2222 -78.4522 265° West 409 471 36,000  Level Cleveland Center
03:21PM 43.2144 -78.6064 266° West 409 471 36,000  Level Cleveland Center
03:22PM 43.2044 -78.7547 265° West 403 464 36,000  Level Cleveland Center
03:23PM 43.1961 -78.9058 266° West 403 464 36,000  Level Cleveland Center
03:24PM 43.1833 -79.0667 264° West 390 449 36,000  Level Toronto Center
03:25PM 43.1667 -79.2167 261° West 390 449 36,000  Level Toronto Center
03:26PM 43.1500 -79.3833 262° West 400 460 36,000  Level Toronto Center
03:27PM 43.1500 -79.5500 270° West 400 460 36,000  Level Toronto Center
03:28PM 43.1333 -79.6833 260° West 400 460 36,000  Level Toronto Center
03:29PM 43.1167 -79.8333 261° West 400 460 36,000  Level Toronto Center
03:30PM 43.1167 -80.0000 270° West 410 472 36,000  Level Toronto Center
03:31PM 43.1000 -80.1333 260° West 410 472 36,000  Level Toronto Center
03:32PM 43.1000 -80.3000 270° West 410 472 36,000  Level Toronto Center
03:33PM 43.0833 -80.4500 261° West 410 472 36,000  Level Toronto Center
03:34PM 43.0667 -80.6167 262° West 410 472 36,000  Level Toronto Center
03:35PM 43.0667 -80.7667 270° West 410 472 36,000  Level Toronto Center
03:36PM 43.0333 -80.9167 253° West 410 472 36,000  Level Toronto Center
03:37PM 43.0167 -81.0667 261° West 410 472 36,000  Level Toronto Center
03:38PM 43.0167 -81.2333 270° West 400 460 36,000  Level Toronto Center
03:39PM 43.0167 -81.3833 270° West 400 460 36,000  Level Toronto Center
03:40PM 43.0167 -81.5333 270° West 400 460 36,000  Level Toronto Center
03:41PM 43.0167 -81.6833 270° West 410 472 36,000  Level Toronto Center
03:42PM 43.0167 -81.8500 270° West 410 472 36,000  Level Toronto Center
03:43PM 43.0000 -82.0000 261° West 410 472 36,000  Level Toronto Center
03:44PM 43.0000 -82.1667 270° West 410 472 36,000  Level Toronto Center
03:45PM 43.0000 -82.3000 270° West 410 472 36,000  Level Toronto Center
03:46PM 43.0000 -82.4667 270° West 410 472 36,000  Level Toronto Center
03:47PM 43.0167 -82.6167 279° West 410 472 36,000  Level Toronto Center
03:48PM 43.0722 -82.7033 311° West 391 450 36,000  Level Cleveland Center
03:49PM 43.1769 -82.7922 328° Northwest 379 436 36,000  Level Cleveland Center
03:50PM 43.2433 -82.9058 309° West 399 459 36,000  Level Cleveland Center
03:51PM 43.2633 -83.0519 281° West 390 449 36,000 -420 Level Cleveland Center
03:52PM 43.2225 -83.1958 249° West 373 429 35,200 -900 Descending Cleveland Center
03:53PM 43.1900 -83.3425 253° West 391 450 34,300 -960 Descending Cleveland Center
03:54PM 43.1531 -83.4889 251° West 396 456 33,300 -960 Descending Cleveland Center
03:55PM 43.1181 -83.6350 252° West 406 467 32,400 -660 Descending Cleveland Center
03:56PM 43.0828 -83.7842 252° West 413 475 32,000 -240 Descending Cleveland Center
03:57PM 43.0453 -83.9328 251° West 418 481 32,000  Level Cleveland Center
03:58PM 43.0075 -84.0811 251° West 418 481 32,000  Level Cleveland Center
03:59PM 42.9714 -84.2353 252° West 418 481 32,000  Level Cleveland Center
04:00PM 42.9253 -84.4181 251° West 419 482 32,000  Level Chicago Center
04:01PM 42.8881 -84.5683 251° West 419 482 32,000  Level Chicago Center
04:02PM 42.8703 -84.7222 261° West 414 476 32,000  Level Chicago Center
04:03PM 42.8536 -84.8772 262° West 416 479 32,000  Level Chicago Center
04:04PM 42.8344 -85.0606 262° West 410 472 32,000 -480 Level Chicago Center
04:05PM 42.8175 -85.2144 262° West 411 473 31,100 -1,320 Descending Chicago Center
04:06PM 42.8011 -85.3647 262° West 404 465 29,300 -1,800 Descending Chicago Center
04:07PM 42.7836 -85.5158 261° West 403 464 27,500 -1,800 Descending Chicago Center
04:08PM 42.7575 -85.6586 256° West 392 451 25,700 -1,800 Descending Chicago Center
04:09PM 42.7317 -85.8017 256° West 388 447 23,900 -1,800 Descending Chicago Center
04:10PM 42.7075 -85.9397 257° West 377 434 22,100 -1,920 Descending Chicago Center
04:11PM 42.6769 -86.1017 256° West 368 423 20,000 -1,020 Descending Chicago Center
04:12PM 42.6533 -86.2319 256° West 357 411 20,000 -960 Level Chicago Center
04:13PM 42.6283 -86.3589 255° West 349 402 18,100 -1,800 Descending Chicago Center
04:14PM 42.6047 -86.4856 256° West 347 399 16,400 -1,740 Descending Chicago Center
04:15PM 42.5828 -86.6050 256° West 330 380 14,600 -1,920 Descending Chicago Center
04:16PM 42.5614 -86.7256 256° West 329 379 12,500 -2,040 Descending Chicago Center
04:17PM 42.5303 -86.8386 250° West 322 371 10,400 -1,500 Descending Chicago Center
04:18PM 42.4975 -86.9597 250° West 289 333 9,500 -720 Descending Chicago Center
04:19PM 42.4694 -87.0544 248° West 275 316 9,000 -540 Descending Chicago Center
04:20PM 42.4433 -87.1475 249° West 267 307 8,500 -1,020 Descending Chicago Center
04:21PM 42.4172 -87.2469 250° West 276 318 7,000 -780 Descending Chicago Center
04:22PM 42.3925 -87.3431 251° West 274 315 7,000  Level Chicago Center
04:24PM 42.3622 -87.4517 249° West 262 302 7,000  Level Chicago Center
04:25PM 42.3303 -87.5261 240° Southwest 236 272 7,000  Level Chicago Center
04:26PM 42.2839 -87.5783 220° Southwest 223 257 7,000 -360 Level Chicago Center
04:27PM 42.2369 -87.6314 220° Southwest 221 254 6,300 -780 Descending Chicago Center
04:28PM 42.1925 -87.6806 219° Southwest 210 242 5,500 -840 Descending Chicago Center
04:29PM 42.1550 -87.7211 219° Southwest 184 212 4,600 -1,020 Descending Chicago Center
04:30PM 42.1167 -87.7667 221° Southwest 168 193 3,500 -1,140 Descending Chicago TRACON